Time;durP1;ratioP1;P1;durP2;ratioP2;P2;SDS_P1;SDS_P2;PMS_P1;PMS_P2;Temp;Humidity;BMP_temperature;BMP_pressure;BME280_temperature;BME280_humidity;BME280_pressure;Samples;Min_cycle;Max_cycle;Signal;HPM_P1;HPM_P2
2022/07/06 00:02:25;;;;;;;1.90;0.82;;;14.60;99.90;;;;;;5002180;28;20034;-68
2022/07/06 00:04:51;;;;;;;1.70;0.98;;;14.70;99.90;;;;;;5002132;28;20041;-68
2022/07/06 00:07:16;;;;;;;0.85;0.52;;;14.70;99.90;;;;;;5000884;28;20023;-68
2022/07/06 00:09:51;;;;;;;0.60;0.50;;;14.70;99.90;;;;;;5000971;28;20034;-68
2022/07/06 00:12:16;;;;;;;1.20;0.60;;;14.70;99.90;;;;;;5002004;28;20026;-68
2022/07/06 00:14:42;;;;;;;1.92;0.63;;;14.70;99.90;;;;;;5001809;28;20069;-68
2022/07/06 00:17:08;;;;;;;5.72;1.42;;;14.70;99.90;;;;;;5001651;28;20088;-68
2022/07/06 00:19:33;;;;;;;1.23;0.73;;;14.70;99.90;;;;;;5001456;28;20094;-68
2022/07/06 00:21:59;;;;;;;1.30;0.80;;;14.70;99.90;;;;;;5001887;28;20030;-70
2022/07/06 00:24:25;;;;;;;2.88;1.00;;;14.70;99.90;;;;;;5000169;28;20038;-69
2022/07/06 00:26:51;;;;;;;2.55;0.82;;;14.60;99.90;;;;;;5002018;28;20037;-70
2022/07/06 00:29:17;;;;;;;2.58;1.02;;;14.60;99.90;;;;;;5001812;28;20119;-69
2022/07/06 00:31:42;;;;;;;1.42;0.68;;;14.60;99.90;;;;;;5002157;28;20038;-69
2022/07/06 00:34:08;;;;;;;1.27;0.85;;;14.70;99.90;;;;;;5005390;28;20030;-70
2022/07/06 00:36:33;;;;;;;1.02;0.68;;;14.60;99.90;;;;;;5005157;28;20058;-68
2022/07/06 00:38:59;;;;;;;1.60;0.77;;;14.70;99.90;;;;;;5004005;28;20058;-69
2022/07/06 00:41:24;;;;;;;2.05;0.80;;;14.60;99.90;;;;;;5004749;28;20034;-69
2022/07/06 00:43:55;;;;;;;1.02;0.68;;;14.60;99.90;;;;;;5003962;28;20137;-68
2022/07/06 00:46:28;;;;;;;3.45;1.05;;;14.60;99.90;;;;;;5004287;28;20030;-68
2022/07/06 00:48:54;;;;;;;2.05;0.98;;;14.70;99.90;;;;;;5004605;28;20022;-70
2022/07/06 00:51:24;;;;;;;6.43;1.23;;;14.70;99.90;;;;;;5005313;28;20022;-70
2022/07/06 00:53:50;;;;;;;1.20;0.73;;;14.60;99.90;;;;;;5004995;28;20022;-69
2022/07/06 00:56:15;;;;;;;1.90;0.98;;;14.70;99.90;;;;;;5004249;28;20034;-71
2022/07/06 00:58:42;;;;;;;1.20;0.85;;;14.70;99.90;;;;;;5003893;28;20046;-69
2022/07/06 01:01:07;;;;;;;1.13;0.70;;;14.60;99.90;;;;;;5004079;28;20498;-68
2022/07/06 01:03:33;;;;;;;2.55;1.48;;;14.70;99.90;;;;;;5003414;28;20030;-71
2022/07/06 01:05:59;;;;;;;1.13;0.85;;;14.70;99.90;;;;;;5003923;28;20042;-69
2022/07/06 01:08:24;;;;;;;2.58;1.42;;;14.60;99.90;;;;;;5005092;28;20042;-70
2022/07/06 01:10:51;;;;;;;2.20;0.82;;;14.60;99.90;;;;;;5004978;28;20034;-68
2022/07/06 01:13:16;;;;;;;6.93;0.90;;;14.60;99.90;;;;;;5004142;28;20029;-70
2022/07/06 01:15:42;;;;;;;1.70;0.77;;;14.60;99.90;;;;;;5004802;28;20109;-69
2022/07/06 01:18:11;;;;;;;2.65;0.73;;;14.60;99.90;;;;;;5004518;28;20457;-69
2022/07/06 01:20:36;;;;;;;1.38;0.77;;;14.60;99.90;;;;;;5004341;28;20022;-67
2022/07/06 01:23:02;;;;;;;2.88;0.60;;;14.60;99.90;;;;;;5004528;28;20026;-68
2022/07/06 01:25:28;;;;;;;2.05;0.80;;;14.60;99.90;;;;;;5003612;28;20030;-67
2022/07/06 01:27:54;;;;;;;2.25;0.80;;;14.70;99.90;;;;;;5003578;28;20033;-69
2022/07/06 01:30:20;;;;;;;4.78;0.73;;;14.60;99.90;;;;;;5004723;28;20554;-68
2022/07/06 01:32:46;;;;;;;0.82;0.80;;;14.60;99.90;;;;;;5003852;28;20034;-68
2022/07/06 01:35:13;;;;;;;9.18;1.20;;;14.60;99.90;;;;;;5004125;28;20030;-69
2022/07/06 01:37:39;;;;;;;2.53;0.75;;;14.60;99.90;;;;;;5003866;28;20117;-68
2022/07/06 01:40:07;;;;;;;3.60;1.10;;;14.60;99.90;;;;;;5004015;28;20434;-69
2022/07/06 01:42:33;;;;;;;2.47;0.73;;;14.60;99.90;;;;;;5003655;28;20097;-69
2022/07/06 01:44:59;;;;;;;0.73;0.60;;;14.60;99.90;;;;;;5004571;28;20048;-69
2022/07/06 01:47:24;;;;;;;5.30;1.20;;;14.60;99.90;;;;;;5004068;28;20188;-69
2022/07/06 01:49:50;;;;;;;0.63;0.50;;;14.50;99.90;;;;;;5004278;28;20128;-67
2022/07/06 01:52:16;;;;;;;3.42;0.80;;;14.50;99.90;;;;;;5004236;28;20034;-68
2022/07/06 01:54:42;;;;;;;0.47;0.45;;;14.50;99.90;;;;;;5003562;28;20046;-69
2022/07/06 01:57:07;;;;;;;2.67;1.10;;;14.50;99.90;;;;;;5003809;28;20085;-69
2022/07/06 01:59:33;;;;;;;1.42;0.80;;;14.50;99.90;;;;;;5003973;28;20041;-67
2022/07/06 02:01:59;;;;;;;4.40;0.80;;;14.50;99.90;;;;;;5003754;28;20041;-68
2022/07/06 02:04:24;;;;;;;1.42;1.02;;;14.50;99.90;;;;;;5003815;28;20069;-70
2022/07/06 02:06:50;;;;;;;6.50;0.88;;;14.50;99.90;;;;;;5003879;28;20062;-69
2022/07/06 02:09:16;;;;;;;3.00;1.02;;;14.50;99.90;;;;;;5003454;28;20061;-68
2022/07/06 02:11:42;;;;;;;3.58;1.23;;;14.50;99.90;;;;;;5003040;28;20060;-68
2022/07/06 02:14:07;;;;;;;0.85;0.50;;;14.50;99.90;;;;;;5003342;28;20057;-68
2022/07/06 02:16:33;;;;;;;16.80;1.02;;;14.50;99.90;;;;;;5003181;28;20046;-69
2022/07/06 02:18:58;;;;;;;2.35;0.80;;;14.50;99.90;;;;;;5003765;28;20499;-69
2022/07/06 02:21:24;;;;;;;0.43;0.43;;;14.50;99.90;;;;;;5003802;28;20037;-69
2022/07/06 02:23:50;;;;;;;1.60;0.57;;;14.50;99.90;;;;;;5002466;28;20391;-69
2022/07/06 02:26:15;;;;;;;0.95;0.80;;;14.50;99.90;;;;;;5003471;28;20561;-69
2022/07/06 02:28:41;;;;;;;1.80;0.93;;;14.50;99.90;;;;;;5003329;28;20046;-68
2022/07/06 02:31:06;;;;;;;1.27;0.77;;;14.60;99.90;;;;;;5002584;28;20037;-69
2022/07/06 02:33:32;;;;;;;2.15;0.82;;;14.50;99.90;;;;;;5003435;28;20080;-68
2022/07/06 02:35:57;;;;;;;1.02;0.65;;;14.50;99.90;;;;;;5002820;28;20430;-68
2022/07/06 02:38:23;;;;;;;3.70;1.20;;;14.50;99.90;;;;;;5003017;28;20118;-68
2022/07/06 02:40:49;;;;;;;1.42;0.93;;;14.50;99.90;;;;;;5003323;28;20030;-68
2022/07/06 02:43:14;;;;;;;3.08;0.88;;;14.50;99.90;;;;;;5002556;28;20030;-68
2022/07/06 02:45:40;;;;;;;1.55;0.70;;;14.50;99.90;;;;;;5002593;28;20046;-68
2022/07/06 02:48:05;;;;;;;1.23;0.90;;;14.50;99.90;;;;;;5003189;28;20102;-68
2022/07/06 02:50:31;;;;;;;4.15;1.30;;;14.50;99.90;;;;;;5002353;28;20038;-69
2022/07/06 02:52:58;;;;;;;2.15;1.00;;;14.50;99.90;;;;;;5002989;28;20040;-68
2022/07/06 02:55:24;;;;;;;1.50;0.90;;;14.50;99.90;;;;;;5002206;28;20080;-69
2022/07/06 02:57:49;;;;;;;0.77;0.43;;;14.50;99.90;;;;;;5002878;28;20038;-68
2022/07/06 03:00:16;;;;;;;0.43;0.40;;;14.40;99.90;;;;;;5002196;28;20493;-69
2022/07/06 03:02:41;;;;;;;6.35;1.00;;;14.40;99.90;;;;;;5002812;28;20077;-70
2022/07/06 03:05:07;;;;;;;2.28;0.77;;;14.40;99.90;;;;;;5002181;28;20039;-68
2022/07/06 03:07:33;;;;;;;1.83;0.90;;;14.40;99.90;;;;;;5002660;28;20022;-68
2022/07/06 03:09:58;;;;;;;1.48;0.73;;;14.40;99.90;;;;;;5002774;28;20030;-69
2022/07/06 03:12:24;;;;;;;3.78;0.88;;;14.40;99.90;;;;;;5002677;28;20459;-68
2022/07/06 03:14:49;;;;;;;0.65;0.52;;;14.40;99.90;;;;;;5002384;28;20133;-68
2022/07/06 03:17:15;;;;;;;3.13;1.08;;;14.40;99.90;;;;;;5002552;28;20038;-69
2022/07/06 03:19:40;;;;;;;4.10;0.80;;;14.40;99.90;;;;;;5002367;28;20026;-68
2022/07/06 03:22:06;;;;;;;0.55;0.47;;;14.40;99.90;;;;;;5002285;28;20026;-67
2022/07/06 03:24:31;;;;;;;3.97;0.73;;;14.40;99.90;;;;;;5002160;28;20471;-68
2022/07/06 03:26:57;;;;;;;1.08;0.63;;;14.40;99.90;;;;;;5002423;28;20027;-69
2022/07/06 03:29:22;;;;;;;1.05;0.60;;;14.20;99.90;;;;;;5002775;28;20051;-70
2022/07/06 03:31:48;;;;;;;0.88;0.60;;;14.40;99.90;;;;;;5002102;28;20029;-68
2022/07/06 03:34:14;;;;;;;5.60;0.75;;;14.40;99.90;;;;;;5002322;28;20025;-68
2022/07/06 03:36:39;;;;;;;1.83;0.70;;;14.40;99.90;;;;;;5002082;28;20482;-68
2022/07/06 03:39:05;;;;;;;4.95;0.77;;;14.40;99.90;;;;;;5001863;28;20069;-69
2022/07/06 03:41:32;;;;;;;0.60;0.60;;;14.50;99.90;;;;;;5002410;28;20022;-68
2022/07/06 03:43:58;;;;;;;1.67;0.38;;;14.40;99.90;;;;;;5001885;28;20014;-68
2022/07/06 03:46:23;;;;;;;4.93;0.98;;;14.40;99.90;;;;;;5002181;28;20029;-69
2022/07/06 03:48:49;;;;;;;1.17;0.65;;;14.40;99.90;;;;;;5002196;28;20098;-68
2022/07/06 03:51:14;;;;;;;0.75;0.52;;;14.40;99.90;;;;;;5002259;28;20537;-69
2022/07/06 03:53:40;;;;;;;10.32;0.93;;;14.40;99.90;;;;;;5001787;28;20053;-68
2022/07/06 03:58:49;;;;;;;0.57;0.47;;;14.50;99.90;;;;;;5002428;28;20079;-69
2022/07/06 04:01:15;;;;;;;1.58;0.70;;;14.50;99.90;;;;;;5001891;28;20062;-67
2022/07/06 04:03:40;;;;;;;0.55;0.35;;;14.50;99.90;;;;;;5002323;28;20034;-68
2022/07/06 04:06:06;;;;;;;0.63;0.50;;;14.40;99.90;;;;;;5001468;28;20034;-68
2022/07/06 04:08:32;;;;;;;0.40;0.38;;;14.40;99.90;;;;;;5005292;28;20065;-67
2022/07/06 04:10:57;;;;;;;1.25;0.55;;;14.40;99.90;;;;;;5005468;28;20046;-67
2022/07/06 04:13:25;;;;;;;1.17;0.60;;;14.40;99.90;;;;;;5005821;28;20030;-67
2022/07/06 04:15:51;;;;;;;6.35;1.15;;;14.40;99.90;;;;;;5005424;28;20057;-68
2022/07/06 04:18:16;;;;;;;6.35;0.60;;;14.50;99.90;;;;;;5005990;28;20027;-69
2022/07/06 04:20:42;;;;;;;4.50;0.60;;;14.50;99.90;;;;;;5005644;28;20146;-69
2022/07/06 04:23:08;;;;;;;1.17;0.85;;;14.50;99.90;;;;;;5004417;28;20162;-67
2022/07/06 04:25:34;;;;;;;0.20;0.20;;;14.50;99.90;;;;;;5005717;28;20074;-69
2022/07/06 04:28:00;;;;;;;2.97;0.95;;;14.50;99.90;;;;;;5005606;28;20027;-68
2022/07/06 04:30:25;;;;;;;1.30;0.88;;;14.50;99.90;;;;;;5005576;28;20477;-68
2022/07/06 04:32:51;;;;;;;1.50;0.65;;;14.50;99.90;;;;;;5005854;28;20034;-67
2022/07/06 04:35:17;;;;;;;0.50;0.50;;;14.50;99.90;;;;;;5005147;28;20079;-69
2022/07/06 04:37:42;;;;;;;2.38;0.75;;;14.50;99.90;;;;;;5005080;28;20046;-69
2022/07/06 04:40:09;;;;;;;1.30;0.73;;;14.50;99.90;;;;;;5005367;28;20027;-68
2022/07/06 04:42:34;;;;;;;0.52;0.50;;;14.50;99.90;;;;;;5004809;28;20105;-68
2022/07/06 04:45:00;;;;;;;1.63;0.75;;;14.50;99.90;;;;;;5005210;28;20057;-68
2022/07/06 04:47:25;;;;;;;1.25;0.40;;;14.50;99.90;;;;;;5005220;28;20034;-69
2022/07/06 04:49:51;;;;;;;2.15;0.90;;;14.60;99.90;;;;;;5004531;28;20041;-69
2022/07/06 04:52:16;;;;;;;6.43;1.02;;;14.60;99.90;;;;;;5005375;28;20030;-69
2022/07/06 04:54:42;;;;;;;1.00;0.60;;;14.60;99.90;;;;;;5004963;28;20023;-69
2022/07/06 04:57:08;;;;;;;1.00;0.57;;;14.60;99.90;;;;;;5004956;28;20027;-69
2022/07/06 04:59:33;;;;;;;1.55;0.52;;;14.70;99.90;;;;;;5004986;28;20027;-68
2022/07/06 05:01:59;;;;;;;0.93;0.55;;;14.70;99.90;;;;;;5004402;28;20030;-67
2022/07/06 05:04:24;;;;;;;2.85;0.60;;;14.70;99.90;;;;;;5005064;28;20049;-68
2022/07/06 05:06:50;;;;;;;0.73;0.40;;;14.80;99.90;;;;;;5004107;28;20030;-69
2022/07/06 05:09:16;;;;;;;0.93;0.50;;;14.80;99.90;;;;;;5000647;28;20092;-67
2022/07/06 05:11:41;;;;;;;0.82;0.43;;;14.80;99.90;;;;;;5003052;28;20048;-69
2022/07/06 05:14:08;;;;;;;4.82;0.73;;;14.90;99.90;;;;;;5004381;28;20092;-70
2022/07/06 05:16:33;;;;;;;4.68;0.88;;;14.90;99.90;;;;;;5004227;28;20057;-68
2022/07/06 05:18:59;;;;;;;0.45;0.35;;;14.90;99.90;;;;;;5003185;28;20046;-70
2022/07/06 05:21:25;;;;;;;0.47;0.38;;;14.90;99.90;;;;;;5004603;28;20044;-68
2022/07/06 05:23:51;;;;;;;0.63;0.50;;;14.90;99.90;;;;;;5002795;28;20022;-68
2022/07/06 05:26:17;;;;;;;0.85;0.25;;;14.90;99.90;;;;;;5001463;28;20554;-69
2022/07/06 05:28:42;;;;;;;0.70;0.22;;;14.90;99.90;;;;;;5004090;28;20042;-69
2022/07/06 05:31:08;;;;;;;2.33;0.40;;;15.00;99.90;;;;;;5002990;28;20030;-68
2022/07/06 05:33:34;;;;;;;0.25;0.13;;;15.00;99.90;;;;;;5002763;28;20034;-68
2022/07/06 05:35:59;;;;;;;1.58;0.77;;;15.10;99.90;;;;;;5003457;28;20049;-69
2022/07/06 05:38:25;;;;;;;0.55;0.35;;;15.10;99.90;;;;;;5002091;28;20051;-68
2022/07/06 05:40:50;;;;;;;0.50;0.47;;;15.20;99.90;;;;;;5003194;28;20069;-67
2022/07/06 05:43:17;;;;;;;1.98;0.80;;;15.20;99.90;;;;;;5001629;28;20102;-67
2022/07/06 05:45:43;;;;;;;1.10;0.40;;;15.10;99.90;;;;;;5003364;28;20066;-67
2022/07/06 05:50:53;;;;;;;1.17;0.40;;;15.20;99.90;;;;;;5002631;28;20088;-70
2022/07/06 05:53:19;;;;;;;14.15;0.95;;;15.20;99.90;;;;;;5001280;28;20035;-69
2022/07/06 05:55:45;;;;;;;0.40;0.40;;;15.20;99.90;;;;;;5003999;28;20037;-68
2022/07/06 05:58:10;;;;;;;3.33;0.75;;;15.20;99.90;;;;;;5003562;28;20033;-68
2022/07/06 06:00:36;;;;;;;0.30;0.20;;;15.20;99.90;;;;;;5003540;28;20030;-66
2022/07/06 06:03:02;;;;;;;0.35;0.17;;;15.30;99.90;;;;;;5002728;28;20042;-69
2022/07/06 06:05:27;;;;;;;1.75;0.40;;;15.40;99.90;;;;;;5001916;28;20089;-67
2022/07/06 06:07:53;;;;;;;0.50;0.40;;;15.40;99.90;;;;;;5002871;28;20033;-71
2022/07/06 06:10:21;;;;;;;1.20;0.32;;;15.50;99.90;;;;;;5004092;28;20099;-67
2022/07/06 06:12:47;;;;;;;1.80;0.50;;;15.50;99.90;;;;;;5003576;28;20038;-68
2022/07/06 06:15:13;;;;;;;0.65;0.28;;;15.50;99.90;;;;;;5003178;28;20493;-67
2022/07/06 06:17:39;;;;;;;1.98;1.00;;;15.60;99.90;;;;;;5002960;28;20038;-66
2022/07/06 06:20:07;;;;;;;1.25;0.32;;;15.60;99.90;;;;;;5002159;28;20478;-68
2022/07/06 06:22:46;;;;;;;0.30;0.30;;;15.60;99.90;;;;;;5002853;28;20022;-68
2022/07/06 06:25:13;;;;;;;1.55;0.63;;;15.60;99.90;;;;;;5001329;28;20038;-68
2022/07/06 06:27:39;;;;;;;0.30;0.20;;;15.70;99.90;;;;;;5002799;28;20033;-68
2022/07/06 06:30:05;;;;;;;1.90;0.70;;;15.80;99.90;;;;;;5001365;28;20042;-69
2022/07/06 06:32:31;;;;;;;2.90;0.70;;;15.70;99.90;;;;;;5001624;28;20479;-67
2022/07/06 06:34:57;;;;;;;0.20;0.20;;;15.70;99.90;;;;;;5001602;28;20052;-69
2022/07/06 06:37:22;;;;;;;1.85;0.70;;;15.80;99.90;;;;;;5002227;28;20041;-69
2022/07/06 06:39:48;;;;;;;0.88;0.52;;;15.70;99.90;;;;;;5003249;28;20509;-68
2022/07/06 06:42:13;;;;;;;1.45;0.60;;;15.80;99.90;;;;;;5002888;28;20053;-68
2022/07/06 06:44:39;;;;;;;2.55;1.05;;;15.90;99.90;;;;;;5002017;28;20534;-69
2022/07/06 06:47:04;;;;;;;0.90;0.50;;;15.90;99.90;;;;;;5001790;28;20043;-69
2022/07/06 06:49:30;;;;;;;1.58;0.75;;;15.90;99.90;;;;;;5001660;28;20022;-71
2022/07/06 06:51:55;;;;;;;7.07;0.70;;;15.90;99.90;;;;;;5000686;28;20034;-68
2022/07/06 06:54:21;;;;;;;2.63;0.82;;;16.00;99.90;;;;;;5000587;28;20034;-70
2022/07/06 06:56:47;;;;;;;1.00;0.60;;;16.10;99.90;;;;;;5001611;28;20080;-69
2022/07/06 06:59:12;;;;;;;4.22;0.85;;;16.20;99.90;;;;;;5002055;28;20061;-69
2022/07/06 07:01:38;;;;;;;6.47;0.80;;;16.20;99.90;;;;;;4999458;28;20090;-68
2022/07/06 07:04:04;;;;;;;0.95;0.50;;;16.30;99.90;;;;;;5002004;28;20026;-68
2022/07/06 07:06:29;;;;;;;0.10;0.10;;;16.30;99.90;;;;;;5001990;28;20030;-68
2022/07/06 07:08:55;;;;;;;2.92;0.70;;;16.40;99.90;;;;;;5002506;28;20034;-69
2022/07/06 07:11:21;;;;;;;0.28;0.25;;;16.40;99.90;;;;;;5002863;28;20019;-68
2022/07/06 07:13:47;;;;;;;12.73;0.77;;;16.40;99.90;;;;;;5000741;28;20049;-68
2022/07/06 07:16:12;;;;;;;2.95;0.88;;;16.40;99.90;;;;;;5001295;28;20057;-67
2022/07/06 07:18:38;;;;;;;0.77;0.55;;;16.30;99.90;;;;;;5001721;28;20031;-70
2022/07/06 07:21:04;;;;;;;0.70;0.32;;;16.40;99.90;;;;;;5001456;28;20478;-67
2022/07/06 07:23:30;;;;;;;1.55;0.43;;;16.50;99.90;;;;;;5001906;28;20037;-69
2022/07/06 07:25:55;;;;;;;1.65;0.68;;;16.40;99.90;;;;;;5002513;28;20121;-68
2022/07/06 07:28:21;;;;;;;0.65;0.32;;;16.40;99.90;;;;;;5002181;28;20030;-69
2022/07/06 07:30:47;;;;;;;1.67;0.65;;;16.50;99.90;;;;;;5002442;28;20042;-70
2022/07/06 07:33:12;;;;;;;0.68;0.52;;;16.50;99.90;;;;;;5002517;28;20038;-69
2022/07/06 07:35:38;;;;;;;0.95;0.57;;;16.50;99.90;;;;;;5002350;28;20026;-68
2022/07/06 07:38:04;;;;;;;1.00;0.50;;;16.50;99.90;;;;;;5000923;28;20061;-66
2022/07/06 07:40:30;;;;;;;1.08;0.50;;;16.60;99.90;;;;;;5001529;28;20026;-69
2022/07/06 07:42:55;;;;;;;6.03;0.50;;;16.60;99.90;;;;;;5006425;28;20427;-70
2022/07/06 07:45:21;;;;;;;3.92;0.30;;;16.60;99.90;;;;;;5005098;28;20121;-68
2022/07/06 07:47:46;;;;;;;1.48;0.28;;;16.60;99.90;;;;;;5005902;28;20019;-67
2022/07/06 07:50:13;;;;;;;1.95;0.70;;;16.60;99.90;;;;;;5006295;28;20022;-68
2022/07/06 07:52:39;;;;;;;5.95;0.80;;;16.60;99.90;;;;;;5004201;28;20034;-69
2022/07/06 07:55:05;;;;;;;6.93;0.30;;;16.60;99.90;;;;;;5005719;28;20423;-67
2022/07/06 07:57:31;;;;;;;0.57;0.20;;;16.60;99.90;;;;;;5004162;28;20026;-70
2022/07/06 07:59:56;;;;;;;2.83;0.45;;;16.60;99.90;;;;;;5006072;28;20033;-70
2022/07/06 08:02:22;;;;;;;0.68;0.55;;;16.50;99.90;;;;;;5006043;28;20030;-69
2022/07/06 08:04:47;;;;;;;0.95;0.55;;;16.60;99.90;;;;;;5005134;28;20049;-68
2022/07/06 08:07:13;;;;;;;2.67;0.57;;;16.60;99.90;;;;;;5005819;28;20022;-68
2022/07/06 08:09:39;;;;;;;3.38;0.38;;;16.80;99.90;;;;;;5005855;28;20030;-69
2022/07/06 08:12:04;;;;;;;0.73;0.40;;;16.80;99.90;;;;;;5004401;28;20031;-69
2022/07/06 08:14:31;;;;;;;7.97;0.63;;;16.90;99.90;;;;;;5006144;28;20026;-69
2022/07/06 08:16:57;;;;;;;0.10;0.10;;;16.90;99.90;;;;;;5005604;28;20023;-67
2022/07/06 08:19:23;;;;;;;0.65;0.22;;;17.10;99.90;;;;;;5004576;28;20038;-68
2022/07/06 08:21:48;;;;;;;1.85;0.10;;;17.20;99.90;;;;;;5003214;28;20030;-69
2022/07/06 08:24:14;;;;;;;0.65;0.22;;;17.30;99.90;;;;;;4997988;28;20043;-68
2022/07/06 08:26:40;;;;;;;0.40;0.20;;;17.40;99.90;;;;;;5004174;28;20022;-68
2022/07/06 08:29:06;;;;;;;0.77;0.38;;;17.30;99.90;;;;;;5005319;28;20035;-68
2022/07/06 08:31:34;;;;;;;0.85;0.17;;;17.40;99.90;;;;;;5001781;28;20030;-69
2022/07/06 08:34:00;;;;;;;1.10;0.20;;;17.60;99.90;;;;;;5005067;28;20506;-68
2022/07/06 08:36:25;;;;;;;0.20;0.20;;;17.60;99.90;;;;;;5004972;28;20037;-70
2022/07/06 08:38:51;;;;;;;3.35;0.52;;;17.70;99.90;;;;;;5004055;28;20166;-68
2022/07/06 08:41:19;;;;;;;0.65;0.32;;;17.90;99.90;;;;;;5005217;28;20022;-71
2022/07/06 08:43:44;;;;;;;3.42;0.43;;;18.00;99.90;;;;;;5005137;28;20041;-71
2022/07/06 08:46:14;;;;;;;2.78;0.43;;;18.00;99.90;;;;;;5004210;28;20038;-72
2022/07/06 08:48:41;;;;;;;0.03;0.03;;;18.00;99.90;;;;;;5001766;28;20029;-69
2022/07/06 08:51:06;;;;;;;0.63;0.40;;;18.10;99.90;;;;;;5002757;28;20593;-70
2022/07/06 08:53:33;;;;;;;0.10;0.10;;;18.10;99.90;;;;;;5002669;28;20030;-69
2022/07/06 08:55:58;;;;;;;1.95;0.45;;;18.10;99.90;;;;;;5002850;28;20125;-69
2022/07/06 08:58:26;;;;;;;0.38;0.20;;;18.20;99.90;;;;;;5002252;28;20062;-71
2022/07/06 09:00:53;;;;;;;0.03;0.03;;;18.30;99.90;;;;;;5001315;28;20036;-72
2022/07/06 09:03:19;;;;;;;0.55;0.10;;;18.30;99.90;;;;;;5002681;28;20058;-74
2022/07/06 09:05:46;;;;;;;0.47;0.30;;;18.30;99.90;;;;;;5003329;28;20041;-73
2022/07/06 09:08:12;;;;;;;4.25;0.10;;;18.40;99.90;;;;;;5003672;28;20034;-71
2022/07/06 09:10:38;;;;;;;0.20;0.10;;;18.40;99.90;;;;;;5004305;28;20029;-72
2022/07/06 09:13:05;;;;;;;0.30;0.25;;;18.40;99.90;;;;;;5004430;28;20046;-72
2022/07/06 09:15:32;;;;;;;0.70;0.32;;;18.50;99.90;;;;;;5003610;28;20026;-71
2022/07/06 09:17:58;;;;;;;0.20;0.10;;;18.70;99.90;;;;;;5003673;28;20046;-73
2022/07/06 09:20:24;;;;;;;0.35;0.10;;;18.70;99.90;;;;;;5003133;28;20034;-71
2022/07/06 09:22:50;;;;;;;2.45;0.28;;;18.70;99.90;;;;;;5004649;28;20038;-71
2022/07/06 09:25:16;;;;;;;1.10;0.17;;;18.90;99.90;;;;;;5004034;28;20145;-70
2022/07/06 09:27:47;;;;;;;0.05;0.00;;;18.90;99.90;;;;;;5003614;28;20030;-68
2022/07/06 09:30:14;;;;;;;4.68;0.20;;;18.90;99.90;;;;;;5003966;28;20455;-72
2022/07/06 09:32:41;;;;;;;0.05;0.05;;;18.70;99.90;;;;;;5003617;28;20050;-69
2022/07/06 09:35:18;;;;;;;0.85;0.25;;;18.70;99.90;;;;;;5003567;28;20053;-69
2022/07/06 09:37:47;;;;;;;0.38;0.20;;;18.70;99.90;;;;;;5003032;28;20364;-68
2022/07/06 09:40:17;;;;;;;1.17;0.45;;;18.60;99.90;;;;;;5004100;28;20109;-69
2022/07/06 09:42:43;;;;;;;0.28;0.10;;;18.50;99.90;;;;;;5003715;28;20030;-70
2022/07/06 09:45:09;;;;;;;0.17;0.17;;;18.40;99.90;;;;;;5004301;28;20133;-72
2022/07/06 09:47:34;;;;;;;1.08;0.30;;;18.30;99.90;;;;;;5001932;28;20104;-71
2022/07/06 09:50:00;;;;;;;1.90;0.38;;;18.30;99.90;;;;;;5003748;28;20026;-71
2022/07/06 09:52:26;;;;;;;0.40;0.25;;;18.30;99.90;;;;;;5003338;28;20034;-72
2022/07/06 09:54:51;;;;;;;1.48;0.40;;;18.20;99.90;;;;;;5003191;28;20031;-69
2022/07/06 09:57:17;;;;;;;1.45;0.60;;;18.30;99.90;;;;;;5003370;28;20041;-70
2022/07/06 09:59:51;;;;;;;0.45;0.35;;;18.30;99.90;;;;;;5000487;28;20093;-74
2022/07/06 10:02:19;;;;;;;0.68;0.20;;;18.40;99.90;;;;;;5001647;28;20049;-68
2022/07/06 10:04:46;;;;;;;1.85;0.35;;;18.40;99.90;;;;;;5002009;28;20085;-67
2022/07/06 10:07:13;;;;;;;0.63;0.47;;;18.60;99.90;;;;;;5003729;28;20485;-68
2022/07/06 10:09:40;;;;;;;2.92;0.60;;;18.70;99.90;;;;;;5003340;28;20030;-70
2022/07/06 10:12:12;;;;;;;0.20;0.20;;;18.80;99.90;;;;;;5003424;28;20030;-70
2022/07/06 10:14:38;;;;;;;1.85;0.32;;;18.90;99.90;;;;;;5003249;28;20029;-69
2022/07/06 10:17:05;;;;;;;1.67;0.52;;;18.90;99.90;;;;;;5002649;28;20054;-69
2022/07/06 10:19:31;;;;;;;0.15;0.10;;;19.00;99.90;;;;;;5003271;28;20094;-71
2022/07/06 10:22:02;;;;;;;0.52;0.10;;;19.00;99.90;;;;;;5003066;28;20061;-71
2022/07/06 10:24:30;;;;;;;0.35;0.10;;;19.10;99.90;;;;;;5002198;28;20030;-70
2022/07/06 10:26:56;;;;;;;0.35;0.22;;;19.10;99.90;;;;;;5002488;28;20026;-72
2022/07/06 10:29:23;;;;;;;0.25;0.22;;;19.10;99.90;;;;;;4999958;28;20023;-70
2022/07/06 10:31:51;;;;;;;0.30;0.30;;;19.10;99.90;;;;;;5000788;28;20069;-66
2022/07/06 10:34:19;;;;;;;5.05;0.20;;;19.10;99.90;;;;;;5002205;28;20065;-67
2022/07/06 10:36:50;;;;;;;0.22;0.10;;;19.20;99.90;;;;;;5001282;28;20361;-68
2022/07/06 10:42:45;;;;;;;0.47;0.20;;;19.10;99.90;;;;;;5000681;28;20084;-67
2022/07/06 10:45:13;;;;;;;0.10;0.10;;;19.10;99.90;;;;;;5001274;28;20034;-69
2022/07/06 10:47:40;;;;;;;6.78;0.52;;;19.20;99.90;;;;;;5001895;28;20107;-69
2022/07/06 10:50:06;;;;;;;0.52;0.20;;;19.20;99.90;;;;;;5000479;28;20038;-68
2022/07/06 10:52:51;;;;;;;0.95;0.35;;;19.10;99.90;;;;;;4996226;28;20036;-70
2022/07/06 10:55:32;;;;;;;0.25;0.10;;;18.90;99.90;;;;;;4997879;28;20113;-69
2022/07/06 10:57:58;;;;;;;2.03;0.40;;;18.60;99.90;;;;;;5000743;28;20023;-70
2022/07/06 11:00:24;;;;;;;3.30;0.47;;;18.40;99.90;;;;;;5001808;28;20036;-69
2022/07/06 11:02:50;;;;;;;2.05;0.40;;;18.30;99.90;;;;;;5002361;28;20120;-73
2022/07/06 11:05:41;;;;;;;0.20;0.20;;;18.30;99.90;;;;;;4999026;28;20436;-69
2022/07/06 11:08:10;;;;;;;0.20;0.20;;;18.50;99.90;;;;;;5000531;28;20053;-69
2022/07/06 11:10:48;;;;;;;0.70;0.38;;;18.70;99.90;;;;;;4999908;28;20033;-70
2022/07/06 11:13:29;;;;;;;0.45;0.20;;;18.80;99.90;;;;;;5001764;28;20103;-70
2022/07/06 11:16:02;;;;;;;1.55;0.35;;;18.80;99.90;;;;;;5000846;28;20076;-70
2022/07/06 11:18:39;;;;;;;2.10;0.70;;;18.80;99.90;;;;;;5001841;28;20026;-71
2022/07/06 11:21:19;;;;;;;6.03;0.35;;;18.70;99.90;;;;;;5001530;28;20031;-69
2022/07/06 11:23:47;;;;;;;1.45;0.55;;;18.80;99.90;;;;;;5001643;28;20030;-73
2022/07/06 11:26:13;;;;;;;0.25;0.20;;;18.70;99.90;;;;;;4999857;28;20053;-71
2022/07/06 11:28:39;;;;;;;0.73;0.25;;;18.80;99.90;;;;;;5001731;28;20038;-69
2022/07/06 11:31:04;;;;;;;0.20;0.13;;;19.10;99.90;;;;;;5000049;28;20033;-68
2022/07/06 11:33:31;;;;;;;0.82;0.13;;;19.50;99.90;;;;;;5001621;28;20046;-70
2022/07/06 11:36:20;;;;;;;0.30;0.30;;;19.70;99.90;;;;;;5000938;28;20463;-70
2022/07/06 11:38:47;;;;;;;1.60;0.52;;;19.90;99.90;;;;;;5001400;28;20058;-70
2022/07/06 11:41:14;;;;;;;0.28;0.20;;;19.80;99.90;;;;;;5001357;28;20026;-68
2022/07/06 11:43:45;;;;;;;0.20;0.10;;;19.90;99.90;;;;;;5001428;28;20044;-69
2022/07/06 11:46:34;;;;;;;1.58;0.15;;;20.20;99.90;;;;;;5000778;28;20042;-70
2022/07/06 11:49:02;;;;;;;0.00;0.00;;;20.30;99.90;;;;;;5000569;28;20026;-68
2022/07/06 11:51:31;;;;;;;3.35;0.30;;;20.40;99.90;;;;;;5001450;28;20383;-68
2022/07/06 11:54:02;;;;;;;4.63;0.15;;;20.50;99.90;;;;;;5001267;28;20026;-70
2022/07/06 11:56:29;;;;;;;0.70;0.20;;;20.60;99.90;;;;;;5001106;28;20056;-69
2022/07/06 11:58:57;;;;;;;0.13;0.10;;;20.80;99.90;;;;;;5002284;28;20027;-71
2022/07/06 12:01:25;;;;;;;0.60;0.20;;;20.90;99.90;;;;;;5002030;28;20041;-67
2022/07/06 12:03:51;;;;;;;0.10;0.10;;;20.90;99.90;;;;;;5002347;28;20045;-71
2022/07/06 12:06:18;;;;;;;0.20;0.20;;;20.70;99.90;;;;;;5001352;28;20046;-67
2022/07/06 12:08:46;;;;;;;0.30;0.20;;;20.50;99.90;;;;;;5002192;28;20030;-72
2022/07/06 12:11:19;;;;;;;0.20;0.10;;;20.20;99.90;;;;;;5001511;28;20019;-71
2022/07/06 12:13:44;;;;;;;0.00;0.00;;;20.00;99.90;;;;;;5001952;28;20117;-71
2022/07/06 12:16:17;;;;;;;2.10;0.43;;;19.70;99.90;;;;;;5001935;28;20026;-72
2022/07/06 12:18:44;;;;;;;9.95;0.30;;;19.50;99.90;;;;;;5001823;28;20038;-69
2022/07/06 12:21:13;;;;;;;0.20;0.20;;;19.60;99.90;;;;;;5000311;28;20078;-71
2022/07/06 12:23:43;;;;;;;0.10;0.08;;;19.80;99.90;;;;;;4997321;28;20026;-70
2022/07/06 12:26:10;;;;;;;2.80;0.40;;;20.10;99.90;;;;;;5000466;28;20060;-70
2022/07/06 12:28:37;;;;;;;0.35;0.30;;;20.30;99.90;;;;;;5000599;28;20030;-70
2022/07/06 12:31:03;;;;;;;0.10;0.10;;;20.30;99.90;;;;;;5005045;28;20030;-70
2022/07/06 12:33:29;;;;;;;0.32;0.10;;;20.20;99.90;;;;;;5004634;28;20023;-71
2022/07/06 12:35:55;;;;;;;1.30;0.45;;;20.20;99.90;;;;;;5004197;28;20026;-72
2022/07/06 12:38:29;;;;;;;0.00;0.00;;;20.30;99.90;;;;;;5004458;28;20046;-71
2022/07/06 12:40:55;;;;;;;0.10;0.10;;;20.30;99.90;;;;;;5004698;28;20022;-70
2022/07/06 12:43:40;;;;;;;1.40;0.57;;;20.30;99.90;;;;;;5005007;28;20026;-70
2022/07/06 12:46:32;;;;;;;6.07;0.50;;;20.60;99.90;;;;;;5004814;28;20037;-70
2022/07/06 12:49:01;;;;;;;0.95;0.20;;;21.00;99.90;;;;;;5002555;28;20065;-69
2022/07/06 12:51:29;;;;;;;0.10;0.10;;;21.40;99.90;;;;;;5003444;28;20042;-69
2022/07/06 12:54:12;;;;;;;0.05;0.05;;;21.50;99.90;;;;;;5003656;28;20073;-69